sensor_id;sensor_type;location;lat;lon;timestamp;P1;durP1;ratioP1;P2;durP2;ratioP2
1747;SDS011;871;47.034;15.394;2023-03-23T05:02:32;38.55;;;8.27;;
1747;SDS011;871;47.034;15.394;2023-03-23T05:04:59;40.80;;;9.07;;
1747;SDS011;871;47.034;15.394;2023-03-23T05:07:25;46.97;;;10.88;;
1747;SDS011;871;47.034;15.394;2023-03-23T05:09:51;39.00;;;9.90;;
1747;SDS011;871;47.034;15.394;2023-03-23T05:12:17;41.80;;;10.38;;
1747;SDS011;871;47.034;15.394;2023-03-23T05:14:43;43.70;;;10.90;;
1747;SDS011;871;47.034;15.394;2023-03-23T05:17:09;42.30;;;9.40;;
1747;SDS011;871;47.034;15.394;2023-03-23T05:19:35;49.60;;;12.17;;
1747;SDS011;871;47.034;15.394;2023-03-23T05:22:02;48.97;;;9.80;;
1747;SDS011;871;47.034;15.394;2023-03-23T05:24:32;55.83;;;11.90;;
1747;SDS011;871;47.034;15.394;2023-03-23T05:26:58;55.40;;;12.60;;
1747;SDS011;871;47.034;15.394;2023-03-23T05:29:25;53.50;;;9.80;;
1747;SDS011;871;47.034;15.394;2023-03-23T05:31:51;47.30;;;9.60;;
1747;SDS011;871;47.034;15.394;2023-03-23T05:34:20;50.72;;;11.77;;
1747;SDS011;871;47.034;15.394;2023-03-23T05:36:46;45.23;;;9.20;;
1747;SDS011;871;47.034;15.394;2023-03-23T05:39:12;48.80;;;11.57;;
1747;SDS011;871;47.034;15.394;2023-03-23T05:41:39;53.10;;;11.07;;
1747;SDS011;871;47.034;15.394;2023-03-23T05:44:05;56.47;;;11.63;;
1747;SDS011;871;47.034;15.394;2023-03-23T05:46:32;53.27;;;11.10;;
1747;SDS011;871;47.034;15.394;2023-03-23T05:48:58;49.10;;;12.90;;
1747;SDS011;871;47.034;15.394;2023-03-23T05:51:25;48.27;;;12.10;;
1747;SDS011;871;47.034;15.394;2023-03-23T05:53:51;49.30;;;12.90;;
1747;SDS011;871;47.034;15.394;2023-03-23T05:56:17;47.63;;;11.53;;
1747;SDS011;871;47.034;15.394;2023-03-23T05:58:43;53.17;;;12.77;;
1747;SDS011;871;47.034;15.394;2023-03-23T06:01:09;50.70;;;11.60;;
1747;SDS011;871;47.034;15.394;2023-03-23T06:03:38;52.33;;;14.27;;
1747;SDS011;871;47.034;15.394;2023-03-23T06:06:05;59.63;;;11.90;;
1747;SDS011;871;47.034;15.394;2023-03-23T06:08:32;51.97;;;13.80;;
1747;SDS011;871;47.034;15.394;2023-03-23T06:10:58;54.37;;;13.47;;
1747;SDS011;871;47.034;15.394;2023-03-23T06:13:24;50.47;;;11.53;;
1747;SDS011;871;47.034;15.394;2023-03-23T06:15:54;50.07;;;11.93;;
1747;SDS011;871;47.034;15.394;2023-03-23T06:18:22;49.73;;;10.87;;
1747;SDS011;871;47.034;15.394;2023-03-23T06:20:48;49.43;;;13.07;;
1747;SDS011;871;47.034;15.394;2023-03-23T06:23:15;48.90;;;10.33;;
1747;SDS011;871;47.034;15.394;2023-03-23T06:25:42;51.60;;;10.67;;
1747;SDS011;871;47.034;15.394;2023-03-23T06:28:09;53.30;;;12.10;;
1747;SDS011;871;47.034;15.394;2023-03-23T06:30:35;49.13;;;10.73;;
1747;SDS011;871;47.034;15.394;2023-03-23T06:33:02;50.37;;;10.70;;
1747;SDS011;871;47.034;15.394;2023-03-23T06:35:30;49.07;;;10.40;;
1747;SDS011;871;47.034;15.394;2023-03-23T06:37:57;49.27;;;11.77;;
1747;SDS011;871;47.034;15.394;2023-03-23T06:40:26;47.90;;;11.43;;
1747;SDS011;871;47.034;15.394;2023-03-23T06:42:53;52.07;;;12.43;;
1747;SDS011;871;47.034;15.394;2023-03-23T06:45:19;49.13;;;10.97;;
1747;SDS011;871;47.034;15.394;2023-03-23T06:47:45;50.70;;;11.53;;
1747;SDS011;871;47.034;15.394;2023-03-23T06:50:15;53.63;;;11.13;;
1747;SDS011;871;47.034;15.394;2023-03-23T06:52:45;64.97;;;11.60;;
1747;SDS011;871;47.034;15.394;2023-03-23T06:55:11;59.20;;;12.00;;
1747;SDS011;871;47.034;15.394;2023-03-23T06:57:38;49.60;;;11.20;;
1747;SDS011;871;47.034;15.394;2023-03-23T07:00:04;59.97;;;12.30;;
1747;SDS011;871;47.034;15.394;2023-03-23T07:02:39;51.27;;;11.90;;
1747;SDS011;871;47.034;15.394;2023-03-23T07:05:05;50.73;;;11.27;;
1747;SDS011;871;47.034;15.394;2023-03-23T07:07:32;60.73;;;12.70;;
1747;SDS011;871;47.034;15.394;2023-03-23T07:09:58;50.33;;;12.23;;
1747;SDS011;871;47.034;15.394;2023-03-23T07:12:24;52.10;;;10.73;;
1747;SDS011;871;47.034;15.394;2023-03-23T07:14:50;51.57;;;11.83;;
1747;SDS011;871;47.034;15.394;2023-03-23T07:17:16;53.67;;;10.67;;
1747;SDS011;871;47.034;15.394;2023-03-23T07:19:42;58.43;;;11.37;;
1747;SDS011;871;47.034;15.394;2023-03-23T07:22:08;53.97;;;10.17;;
1747;SDS011;871;47.034;15.394;2023-03-23T07:24:35;47.33;;;9.90;;
1747;SDS011;871;47.034;15.394;2023-03-23T07:27:01;56.67;;;10.97;;
1747;SDS011;871;47.034;15.394;2023-03-23T07:29:27;51.73;;;10.50;;
1747;SDS011;871;47.034;15.394;2023-03-23T07:31:53;52.63;;;10.33;;
1747;SDS011;871;47.034;15.394;2023-03-23T07:34:20;57.40;;;11.40;;
1747;SDS011;871;47.034;15.394;2023-03-23T07:36:46;52.57;;;11.37;;
1747;SDS011;871;47.034;15.394;2023-03-23T07:39:13;48.83;;;9.40;;
1747;SDS011;871;47.034;15.394;2023-03-23T07:41:39;50.20;;;9.80;;
1747;SDS011;871;47.034;15.394;2023-03-23T07:44:05;53.37;;;10.40;;
1747;SDS011;871;47.034;15.394;2023-03-23T07:46:32;53.80;;;11.07;;
1747;SDS011;871;47.034;15.394;2023-03-23T07:48:58;57.17;;;11.30;;
1747;SDS011;871;47.034;15.394;2023-03-23T07:51:25;48.70;;;10.63;;
1747;SDS011;871;47.034;15.394;2023-03-23T07:53:52;54.00;;;11.10;;
1747;SDS011;871;47.034;15.394;2023-03-23T07:56:19;59.87;;;10.57;;
1747;SDS011;871;47.034;15.394;2023-03-23T07:58:46;67.57;;;12.47;;
1747;SDS011;871;47.034;15.394;2023-03-23T08:01:12;58.50;;;11.10;;
1747;SDS011;871;47.034;15.394;2023-03-23T08:03:38;58.70;;;11.17;;
1747;SDS011;871;47.034;15.394;2023-03-23T08:06:05;54.63;;;10.70;;
1747;SDS011;871;47.034;15.394;2023-03-23T08:08:31;55.17;;;11.10;;
1747;SDS011;871;47.034;15.394;2023-03-23T08:10:57;50.77;;;10.40;;
1747;SDS011;871;47.034;15.394;2023-03-23T08:13:24;51.30;;;10.13;;
1747;SDS011;871;47.034;15.394;2023-03-23T08:15:50;51.23;;;9.27;;
1747;SDS011;871;47.034;15.394;2023-03-23T08:18:16;47.63;;;10.00;;
1747;SDS011;871;47.034;15.394;2023-03-23T08:20:43;51.47;;;10.23;;
1747;SDS011;871;47.034;15.394;2023-03-23T08:23:13;50.40;;;11.00;;
1747;SDS011;871;47.034;15.394;2023-03-23T08:25:40;56.83;;;10.40;;
1747;SDS011;871;47.034;15.394;2023-03-23T08:28:07;53.10;;;11.03;;
1747;SDS011;871;47.034;15.394;2023-03-23T08:30:34;55.03;;;9.77;;
1747;SDS011;871;47.034;15.394;2023-03-23T08:33:02;48.80;;;9.20;;
1747;SDS011;871;47.034;15.394;2023-03-23T08:35:29;47.80;;;9.87;;
1747;SDS011;871;47.034;15.394;2023-03-23T08:37:56;50.03;;;9.00;;
1747;SDS011;871;47.034;15.394;2023-03-23T08:40:23;58.17;;;10.33;;
1747;SDS011;871;47.034;15.394;2023-03-23T08:42:49;47.23;;;9.80;;
1747;SDS011;871;47.034;15.394;2023-03-23T08:45:20;50.20;;;8.67;;
1747;SDS011;871;47.034;15.394;2023-03-23T08:47:47;51.50;;;9.40;;
1747;SDS011;871;47.034;15.394;2023-03-23T08:50:17;50.00;;;9.73;;
1747;SDS011;871;47.034;15.394;2023-03-23T08:52:43;58.20;;;10.93;;
1747;SDS011;871;47.034;15.394;2023-03-23T08:55:09;52.70;;;10.23;;
1747;SDS011;871;47.034;15.394;2023-03-23T08:57:36;53.10;;;11.23;;
1747;SDS011;871;47.034;15.394;2023-03-23T09:00:03;50.40;;;10.23;;
1747;SDS011;871;47.034;15.394;2023-03-23T09:02:50;51.83;;;10.97;;
1747;SDS011;871;47.034;15.394;2023-03-23T09:05:18;49.33;;;10.70;;
1747;SDS011;871;47.034;15.394;2023-03-23T09:07:46;51.30;;;12.13;;
1747;SDS011;871;47.034;15.394;2023-03-23T09:10:12;55.73;;;11.50;;
1747;SDS011;871;47.034;15.394;2023-03-23T09:12:39;49.60;;;10.83;;
1747;SDS011;871;47.034;15.394;2023-03-23T09:15:06;48.57;;;10.73;;
1747;SDS011;871;47.034;15.394;2023-03-23T09:17:36;59.03;;;11.20;;
1747;SDS011;871;47.034;15.394;2023-03-23T09:20:03;52.27;;;11.73;;
1747;SDS011;871;47.034;15.394;2023-03-23T09:22:37;53.77;;;11.13;;
1747;SDS011;871;47.034;15.394;2023-03-23T09:25:05;55.77;;;10.50;;
1747;SDS011;871;47.034;15.394;2023-03-23T09:27:31;57.90;;;10.53;;
1747;SDS011;871;47.034;15.394;2023-03-23T09:29:58;52.63;;;10.37;;
1747;SDS011;871;47.034;15.394;2023-03-23T09:32:26;53.23;;;11.00;;
1747;SDS011;871;47.034;15.394;2023-03-23T09:34:52;70.47;;;12.80;;
1747;SDS011;871;47.034;15.394;2023-03-23T09:37:21;51.73;;;10.07;;
1747;SDS011;871;47.034;15.394;2023-03-23T09:39:47;48.47;;;10.53;;
1747;SDS011;871;47.034;15.394;2023-03-23T09:42:30;53.17;;;11.27;;
1747;SDS011;871;47.034;15.394;2023-03-23T09:47:41;54.90;;;10.87;;
1747;SDS011;871;47.034;15.394;2023-03-23T09:50:11;51.63;;;10.00;;
1747;SDS011;871;47.034;15.394;2023-03-23T09:55:08;50.77;;;10.40;;
1747;SDS011;871;47.034;15.394;2023-03-23T10:07:38;49.43;;;10.63;;
1747;SDS011;871;47.034;15.394;2023-03-23T10:10:04;54.23;;;9.83;;
1747;SDS011;871;47.034;15.394;2023-03-23T10:20:29;50.33;;;10.43;;
1747;SDS011;871;47.034;15.394;2023-03-23T10:23:08;50.03;;;10.23;;
1747;SDS011;871;47.034;15.394;2023-03-23T10:25:37;50.13;;;10.03;;
1747;SDS011;871;47.034;15.394;2023-03-23T10:28:11;52.40;;;11.43;;
1747;SDS011;871;47.034;15.394;2023-03-23T10:30:41;52.50;;;11.03;;
1747;SDS011;871;47.034;15.394;2023-03-23T10:33:25;54.70;;;11.67;;
1747;SDS011;871;47.034;15.394;2023-03-23T10:41:09;52.50;;;10.53;;
1747;SDS011;871;47.034;15.394;2023-03-23T10:43:37;54.90;;;9.80;;
1747;SDS011;871;47.034;15.394;2023-03-23T10:46:17;48.87;;;9.77;;
1747;SDS011;871;47.034;15.394;2023-03-23T10:48:47;48.53;;;9.80;;
1747;SDS011;871;47.034;15.394;2023-03-23T10:51:15;48.73;;;9.63;;
1747;SDS011;871;47.034;15.394;2023-03-23T10:53:44;48.03;;;9.30;;
1747;SDS011;871;47.034;15.394;2023-03-23T10:56:29;49.27;;;10.30;;
1747;SDS011;871;47.034;15.394;2023-03-23T10:58:56;52.67;;;9.80;;
1747;SDS011;871;47.034;15.394;2023-03-23T11:01:33;50.63;;;10.60;;
1747;SDS011;871;47.034;15.394;2023-03-23T11:04:02;53.03;;;11.10;;
1747;SDS011;871;47.034;15.394;2023-03-23T11:06:29;49.97;;;9.67;;
1747;SDS011;871;47.034;15.394;2023-03-23T11:09:00;48.93;;;10.00;;
1747;SDS011;871;47.034;15.394;2023-03-23T11:11:29;47.87;;;10.10;;
1747;SDS011;871;47.034;15.394;2023-03-23T11:13:58;54.13;;;8.60;;
1747;SDS011;871;47.034;15.394;2023-03-23T11:16:27;50.07;;;9.50;;
1747;SDS011;871;47.034;15.394;2023-03-23T11:18:53;48.20;;;10.93;;
1747;SDS011;871;47.034;15.394;2023-03-23T11:21:21;48.43;;;9.37;;
1747;SDS011;871;47.034;15.394;2023-03-23T11:23:54;47.90;;;8.93;;
1747;SDS011;871;47.034;15.394;2023-03-23T11:26:34;47.57;;;9.10;;
1747;SDS011;871;47.034;15.394;2023-03-23T11:31:33;51.50;;;8.80;;
1747;SDS011;871;47.034;15.394;2023-03-23T11:34:02;49.27;;;9.47;;
1747;SDS011;871;47.034;15.394;2023-03-23T11:36:40;48.27;;;8.70;;
1747;SDS011;871;47.034;15.394;2023-03-23T11:41:48;47.10;;;8.30;;
1747;SDS011;871;47.034;15.394;2023-03-23T11:44:14;45.67;;;8.97;;
1747;SDS011;871;47.034;15.394;2023-03-23T11:46:53;47.03;;;8.90;;
1747;SDS011;871;47.034;15.394;2023-03-23T11:49:26;47.90;;;7.77;;
1747;SDS011;871;47.034;15.394;2023-03-23T11:51:56;44.80;;;8.30;;
1747;SDS011;871;47.034;15.394;2023-03-23T11:54:35;46.27;;;9.50;;
1747;SDS011;871;47.034;15.394;2023-03-23T11:57:09;46.07;;;8.77;;
1747;SDS011;871;47.034;15.394;2023-03-23T11:59:40;49.67;;;10.57;;
1747;SDS011;871;47.034;15.394;2023-03-23T12:18:25;47.00;;;8.97;;
1747;SDS011;871;47.034;15.394;2023-03-23T12:30:55;49.07;;;8.43;;
1747;SDS011;871;47.034;15.394;2023-03-23T12:36:24;46.00;;;8.70;;
1747;SDS011;871;47.034;15.394;2023-03-23T12:44:11;49.70;;;8.40;;
1747;SDS011;871;47.034;15.394;2023-03-23T12:54:35;47.13;;;8.07;;
1747;SDS011;871;47.034;15.394;2023-03-23T12:57:13;48.33;;;8.77;;
1747;SDS011;871;47.034;15.394;2023-03-23T13:00:05;49.47;;;9.30;;
1747;SDS011;871;47.034;15.394;2023-03-23T13:02:33;47.67;;;8.97;;
1747;SDS011;871;47.034;15.394;2023-03-23T13:05:05;47.97;;;9.30;;
1747;SDS011;871;47.034;15.394;2023-03-23T13:07:45;47.27;;;9.00;;
1747;SDS011;871;47.034;15.394;2023-03-23T13:10:21;47.13;;;7.77;;
1747;SDS011;871;47.034;15.394;2023-03-23T13:12:49;47.43;;;8.80;;
1747;SDS011;871;47.034;15.394;2023-03-23T13:20:38;47.43;;;9.33;;
1747;SDS011;871;47.034;15.394;2023-03-23T13:23:11;48.20;;;8.80;;
1747;SDS011;871;47.034;15.394;2023-03-23T13:25:42;47.57;;;8.80;;
1747;SDS011;871;47.034;15.394;2023-03-23T13:28:24;49.53;;;8.53;;
1747;SDS011;871;47.034;15.394;2023-03-23T13:31:03;46.30;;;8.23;;
1747;SDS011;871;47.034;15.394;2023-03-23T13:33:33;46.57;;;8.40;;
1747;SDS011;871;47.034;15.394;2023-03-23T13:36:04;47.70;;;9.17;;
1747;SDS011;871;47.034;15.394;2023-03-23T13:38:32;46.63;;;9.10;;
1747;SDS011;871;47.034;15.394;2023-03-23T13:40:58;47.00;;;9.10;;
1747;SDS011;871;47.034;15.394;2023-03-23T13:43:34;48.27;;;9.10;;
1747;SDS011;871;47.034;15.394;2023-03-23T13:48:40;54.20;;;9.90;;
1747;SDS011;871;47.034;15.394;2023-03-23T13:51:22;46.10;;;8.37;;
1747;SDS011;871;47.034;15.394;2023-03-23T13:53:49;45.43;;;8.03;;
1747;SDS011;871;47.034;15.394;2023-03-23T13:58:50;45.77;;;8.23;;
1747;SDS011;871;47.034;15.394;2023-03-23T14:01:19;47.30;;;8.60;;
1747;SDS011;871;47.034;15.394;2023-03-23T14:03:58;49.10;;;8.27;;
1747;SDS011;871;47.034;15.394;2023-03-23T14:06:26;43.73;;;7.23;;
1747;SDS011;871;47.034;15.394;2023-03-23T14:09:03;46.07;;;7.17;;
1747;SDS011;871;47.034;15.394;2023-03-23T14:11:30;44.10;;;6.97;;
1747;SDS011;871;47.034;15.394;2023-03-23T14:13:59;46.50;;;8.30;;
1747;SDS011;871;47.034;15.394;2023-03-23T14:18:59;44.43;;;6.93;;
1747;SDS011;871;47.034;15.394;2023-03-23T14:22:16;44.40;;;5.97;;
1747;SDS011;871;47.034;15.394;2023-03-23T14:24:15;46.20;;;6.80;;
1747;SDS011;871;47.034;15.394;2023-03-23T14:26:42;43.00;;;5.93;;
1747;SDS011;871;47.034;15.394;2023-03-23T14:29:10;46.43;;;6.17;;
1747;SDS011;871;47.034;15.394;2023-03-23T14:31:37;44.60;;;6.23;;
1747;SDS011;871;47.034;15.394;2023-03-23T14:34:05;46.87;;;7.33;;
1747;SDS011;871;47.034;15.394;2023-03-23T14:36:36;46.40;;;6.77;;
1747;SDS011;871;47.034;15.394;2023-03-23T14:41:32;47.10;;;6.87;;
1747;SDS011;871;47.034;15.394;2023-03-23T14:44:01;50.03;;;6.50;;
1747;SDS011;871;47.034;15.394;2023-03-23T14:46:29;45.40;;;6.83;;
1747;SDS011;871;47.034;15.394;2023-03-23T14:48:56;45.97;;;7.20;;
1747;SDS011;871;47.034;15.394;2023-03-23T14:51:22;48.20;;;7.17;;
1747;SDS011;871;47.034;15.394;2023-03-23T14:53:48;45.50;;;6.70;;
1747;SDS011;871;47.034;15.394;2023-03-23T14:56:17;44.63;;;6.80;;
1747;SDS011;871;47.034;15.394;2023-03-23T14:58:48;45.27;;;6.50;;
1747;SDS011;871;47.034;15.394;2023-03-23T15:01:27;44.10;;;6.70;;
1747;SDS011;871;47.034;15.394;2023-03-23T15:03:59;44.60;;;7.40;;
1747;SDS011;871;47.034;15.394;2023-03-23T15:06:26;45.87;;;6.80;;
1747;SDS011;871;47.034;15.394;2023-03-23T15:08:54;45.20;;;6.50;;
1747;SDS011;871;47.034;15.394;2023-03-23T15:11:24;43.87;;;6.80;;
1747;SDS011;871;47.034;15.394;2023-03-23T15:13:52;44.27;;;6.70;;
1747;SDS011;871;47.034;15.394;2023-03-23T15:18:49;45.60;;;7.80;;
1747;SDS011;871;47.034;15.394;2023-03-23T15:21:29;43.50;;;6.60;;
1747;SDS011;871;47.034;15.394;2023-03-23T15:23:55;43.10;;;6.77;;
1747;SDS011;871;47.034;15.394;2023-03-23T15:26:32;47.20;;;6.63;;
1747;SDS011;871;47.034;15.394;2023-03-23T15:29:20;45.97;;;7.80;;
1747;SDS011;871;47.034;15.394;2023-03-23T15:31:47;46.97;;;6.43;;
1747;SDS011;871;47.034;15.394;2023-03-23T15:34:20;50.80;;;7.67;;
1747;SDS011;871;47.034;15.394;2023-03-23T15:36:50;49.20;;;8.00;;
1747;SDS011;871;47.034;15.394;2023-03-23T15:39:16;44.40;;;7.80;;
1747;SDS011;871;47.034;15.394;2023-03-23T15:41:47;47.23;;;8.40;;
1747;SDS011;871;47.034;15.394;2023-03-23T15:44:20;47.30;;;8.53;;
1747;SDS011;871;47.034;15.394;2023-03-23T15:46:50;47.43;;;7.60;;
1747;SDS011;871;47.034;15.394;2023-03-23T15:49:16;47.03;;;8.70;;
1747;SDS011;871;47.034;15.394;2023-03-23T15:51:42;47.57;;;7.80;;
1747;SDS011;871;47.034;15.394;2023-03-23T15:54:15;46.03;;;7.97;;
1747;SDS011;871;47.034;15.394;2023-03-23T15:56:42;46.47;;;7.67;;
1747;SDS011;871;47.034;15.394;2023-03-23T15:59:09;45.83;;;7.57;;
1747;SDS011;871;47.034;15.394;2023-03-23T16:01:36;46.30;;;7.87;;
1747;SDS011;871;47.034;15.394;2023-03-23T16:04:06;45.40;;;8.53;;
1747;SDS011;871;47.034;15.394;2023-03-23T16:06:33;45.00;;;7.90;;
1747;SDS011;871;47.034;15.394;2023-03-23T16:09:00;46.90;;;8.10;;
1747;SDS011;871;47.034;15.394;2023-03-23T16:11:28;50.03;;;7.90;;
1747;SDS011;871;47.034;15.394;2023-03-23T16:13:55;46.80;;;8.60;;
1747;SDS011;871;47.034;15.394;2023-03-23T16:17:03;47.10;;;8.40;;
1747;SDS011;871;47.034;15.394;2023-03-23T16:19:11;44.97;;;8.10;;
1747;SDS011;871;47.034;15.394;2023-03-23T16:21:38;45.87;;;9.30;;
1747;SDS011;871;47.034;15.394;2023-03-23T16:24:04;46.23;;;8.67;;
1747;SDS011;871;47.034;15.394;2023-03-23T16:26:30;47.70;;;8.93;;
1747;SDS011;871;47.034;15.394;2023-03-23T16:28:56;48.90;;;9.97;;
1747;SDS011;871;47.034;15.394;2023-03-23T16:31:22;46.70;;;9.00;;
1747;SDS011;871;47.034;15.394;2023-03-23T16:33:48;45.87;;;9.30;;
1747;SDS011;871;47.034;15.394;2023-03-23T16:36:14;46.10;;;8.90;;
1747;SDS011;871;47.034;15.394;2023-03-23T16:38:40;46.07;;;8.30;;
1747;SDS011;871;47.034;15.394;2023-03-23T16:41:07;65.47;;;8.83;;
1747;SDS011;871;47.034;15.394;2023-03-23T16:43:33;55.93;;;8.27;;
1747;SDS011;871;47.034;15.394;2023-03-23T16:46:00;48.20;;;8.37;;
1747;SDS011;871;47.034;15.394;2023-03-23T16:48:27;49.70;;;10.50;;
1747;SDS011;871;47.034;15.394;2023-03-23T16:50:53;46.83;;;9.43;;
1747;SDS011;871;47.034;15.394;2023-03-23T16:53:19;51.90;;;11.03;;
1747;SDS011;871;47.034;15.394;2023-03-23T16:55:46;55.43;;;13.77;;
1747;SDS011;871;47.034;15.394;2023-03-23T16:58:13;52.20;;;11.03;;
1747;SDS011;871;47.034;15.394;2023-03-23T17:00:39;58.37;;;12.33;;
1747;SDS011;871;47.034;15.394;2023-03-23T17:03:05;56.73;;;17.10;;
1747;SDS011;871;47.034;15.394;2023-03-23T17:05:32;58.10;;;15.53;;
1747;SDS011;871;47.034;15.394;2023-03-23T17:08:00;56.10;;;15.30;;
1747;SDS011;871;47.034;15.394;2023-03-23T17:10:28;50.33;;;11.57;;
1747;SDS011;871;47.034;15.394;2023-03-23T17:12:54;54.20;;;10.73;;
1747;SDS011;871;47.034;15.394;2023-03-23T17:15:21;48.00;;;10.27;;
1747;SDS011;871;47.034;15.394;2023-03-23T17:17:48;52.40;;;12.00;;
1747;SDS011;871;47.034;15.394;2023-03-23T17:20:15;49.03;;;10.00;;
1747;SDS011;871;47.034;15.394;2023-03-23T17:22:41;49.43;;;11.60;;
1747;SDS011;871;47.034;15.394;2023-03-23T17:25:07;55.77;;;11.87;;
1747;SDS011;871;47.034;15.394;2023-03-23T17:27:34;49.47;;;10.87;;
1747;SDS011;871;47.034;15.394;2023-03-23T17:30:01;54.27;;;12.03;;
1747;SDS011;871;47.034;15.394;2023-03-23T17:32:28;49.17;;;10.77;;
1747;SDS011;871;47.034;15.394;2023-03-23T17:34:54;51.13;;;11.33;;
1747;SDS011;871;47.034;15.394;2023-03-23T17:37:20;51.20;;;11.37;;
1747;SDS011;871;47.034;15.394;2023-03-23T17:39:46;56.03;;;12.57;;
1747;SDS011;871;47.034;15.394;2023-03-23T17:42:13;52.60;;;13.77;;
1747;SDS011;871;47.034;15.394;2023-03-23T17:44:39;51.93;;;11.50;;
1747;SDS011;871;47.034;15.394;2023-03-23T17:47:06;52.10;;;13.40;;
1747;SDS011;871;47.034;15.394;2023-03-23T17:49:32;62.47;;;14.37;;
1747;SDS011;871;47.034;15.394;2023-03-23T17:51:58;57.40;;;15.50;;
1747;SDS011;871;47.034;15.394;2023-03-23T17:54:25;54.27;;;15.07;;
1747;SDS011;871;47.034;15.394;2023-03-23T17:56:53;53.10;;;15.40;;
1747;SDS011;871;47.034;15.394;2023-03-23T17:59:22;53.80;;;15.40;;
1747;SDS011;871;47.034;15.394;2023-03-23T18:01:49;54.07;;;14.57;;
1747;SDS011;871;47.034;15.394;2023-03-23T18:04:15;54.10;;;15.00;;
1747;SDS011;871;47.034;15.394;2023-03-23T18:06:41;53.77;;;14.40;;
1747;SDS011;871;47.034;15.394;2023-03-23T18:09:08;59.70;;;17.37;;
1747;SDS011;871;47.034;15.394;2023-03-23T18:11:34;60.40;;;16.33;;
1747;SDS011;871;47.034;15.394;2023-03-23T18:14:00;55.37;;;15.13;;
1747;SDS011;871;47.034;15.394;2023-03-23T18:16:27;54.30;;;12.70;;
1747;SDS011;871;47.034;15.394;2023-03-23T18:18:53;47.80;;;11.07;;
1747;SDS011;871;47.034;15.394;2023-03-23T18:21:20;61.77;;;14.23;;
1747;SDS011;871;47.034;15.394;2023-03-23T18:23:47;60.50;;;14.10;;
1747;SDS011;871;47.034;15.394;2023-03-23T18:26:13;51.73;;;12.57;;
1747;SDS011;871;47.034;15.394;2023-03-23T18:28:40;53.37;;;11.90;;
1747;SDS011;871;47.034;15.394;2023-03-23T18:31:08;53.70;;;12.90;;
1747;SDS011;871;47.034;15.394;2023-03-23T18:33:37;47.17;;;10.47;;
1747;SDS011;871;47.034;15.394;2023-03-23T18:36:06;48.77;;;10.10;;
1747;SDS011;871;47.034;15.394;2023-03-23T18:38:33;56.50;;;12.30;;
1747;SDS011;871;47.034;15.394;2023-03-23T18:41:00;57.23;;;15.33;;
1747;SDS011;871;47.034;15.394;2023-03-23T18:43:26;56.77;;;14.33;;
1747;SDS011;871;47.034;15.394;2023-03-23T18:45:55;59.10;;;14.97;;
1747;SDS011;871;47.034;15.394;2023-03-23T18:48:21;58.67;;;15.17;;
1747;SDS011;871;47.034;15.394;2023-03-23T18:50:50;52.10;;;13.30;;
1747;SDS011;871;47.034;15.394;2023-03-23T18:53:19;51.77;;;11.83;;
1747;SDS011;871;47.034;15.394;2023-03-23T18:55:45;52.73;;;12.40;;
1747;SDS011;871;47.034;15.394;2023-03-23T18:58:12;51.47;;;14.13;;
1747;SDS011;871;47.034;15.394;2023-03-23T19:00:39;57.07;;;13.80;;
1747;SDS011;871;47.034;15.394;2023-03-23T19:03:07;53.57;;;12.50;;
1747;SDS011;871;47.034;15.394;2023-03-23T19:05:34;52.40;;;13.10;;
1747;SDS011;871;47.034;15.394;2023-03-23T19:08:03;48.90;;;12.63;;
1747;SDS011;871;47.034;15.394;2023-03-23T19:10:34;52.00;;;11.20;;
1747;SDS011;871;47.034;15.394;2023-03-23T19:13:00;52.30;;;12.17;;
1747;SDS011;871;47.034;15.394;2023-03-23T19:15:27;49.47;;;11.30;;
1747;SDS011;871;47.034;15.394;2023-03-23T19:17:53;47.43;;;10.37;;
1747;SDS011;871;47.034;15.394;2023-03-23T19:20:21;60.63;;;12.43;;
1747;SDS011;871;47.034;15.394;2023-03-23T19:22:49;53.67;;;11.70;;
1747;SDS011;871;47.034;15.394;2023-03-23T19:25:16;48.63;;;9.97;;
1747;SDS011;871;47.034;15.394;2023-03-23T19:27:43;47.00;;;10.00;;
1747;SDS011;871;47.034;15.394;2023-03-23T19:30:11;48.27;;;10.23;;
1747;SDS011;871;47.034;15.394;2023-03-23T19:32:39;50.00;;;10.27;;
1747;SDS011;871;47.034;15.394;2023-03-23T19:35:07;47.70;;;10.50;;
1747;SDS011;871;47.034;15.394;2023-03-23T19:37:34;45.77;;;9.40;;
1747;SDS011;871;47.034;15.394;2023-03-23T19:40:01;45.03;;;8.90;;
1747;SDS011;871;47.034;15.394;2023-03-23T19:42:32;54.27;;;9.33;;
1747;SDS011;871;47.034;15.394;2023-03-23T19:44:59;45.73;;;7.60;;
1747;SDS011;871;47.034;15.394;2023-03-23T19:47:26;44.53;;;7.67;;
1747;SDS011;871;47.034;15.394;2023-03-23T19:49:54;47.20;;;9.70;;
1747;SDS011;871;47.034;15.394;2023-03-23T19:52:25;44.73;;;7.97;;
1747;SDS011;871;47.034;15.394;2023-03-23T19:54:52;47.23;;;8.43;;
1747;SDS011;871;47.034;15.394;2023-03-23T19:57:19;50.47;;;8.50;;
1747;SDS011;871;47.034;15.394;2023-03-23T19:59:47;47.73;;;8.50;;
1747;SDS011;871;47.034;15.394;2023-03-23T20:02:13;46.70;;;9.30;;
1747;SDS011;871;47.034;15.394;2023-03-23T20:04:41;47.60;;;9.00;;
1747;SDS011;871;47.034;15.394;2023-03-23T20:07:07;49.00;;;8.63;;
1747;SDS011;871;47.034;15.394;2023-03-23T20:09:35;44.97;;;8.13;;
1747;SDS011;871;47.034;15.394;2023-03-23T20:12:05;46.17;;;9.23;;
1747;SDS011;871;47.034;15.394;2023-03-23T20:14:33;45.37;;;9.17;;
1747;SDS011;871;47.034;15.394;2023-03-23T20:17:00;47.53;;;9.57;;
1747;SDS011;871;47.034;15.394;2023-03-23T20:19:29;46.53;;;8.70;;
1747;SDS011;871;47.034;15.394;2023-03-23T20:21:55;49.37;;;8.70;;
1747;SDS011;871;47.034;15.394;2023-03-23T20:24:22;45.60;;;8.30;;
1747;SDS011;871;47.034;15.394;2023-03-23T20:26:51;48.70;;;10.20;;
1747;SDS011;871;47.034;15.394;2023-03-23T20:29:18;47.90;;;10.30;;
1747;SDS011;871;47.034;15.394;2023-03-23T20:31:44;47.37;;;9.47;;
1747;SDS011;871;47.034;15.394;2023-03-23T20:34:15;49.83;;;10.03;;
1747;SDS011;871;47.034;15.394;2023-03-23T20:36:53;52.60;;;10.70;;
1747;SDS011;871;47.034;15.394;2023-03-23T20:39:24;46.73;;;9.80;;
1747;SDS011;871;47.034;15.394;2023-03-23T20:41:52;46.57;;;8.77;;
1747;SDS011;871;47.034;15.394;2023-03-23T20:44:19;51.63;;;10.90;;
1747;SDS011;871;47.034;15.394;2023-03-23T20:46:49;50.77;;;10.90;;
1747;SDS011;871;47.034;15.394;2023-03-23T20:49:16;49.97;;;9.43;;
1747;SDS011;871;47.034;15.394;2023-03-23T20:51:50;45.80;;;9.40;;
1747;SDS011;871;47.034;15.394;2023-03-23T20:54:18;51.77;;;8.90;;
1747;SDS011;871;47.034;15.394;2023-03-23T20:56:46;48.73;;;9.27;;
1747;SDS011;871;47.034;15.394;2023-03-23T20:59:13;46.90;;;10.50;;
1747;SDS011;871;47.034;15.394;2023-03-23T21:01:39;49.20;;;10.73;;
1747;SDS011;871;47.034;15.394;2023-03-23T21:04:07;48.10;;;10.27;;
1747;SDS011;871;47.034;15.394;2023-03-23T21:06:38;52.90;;;10.43;;
1747;SDS011;871;47.034;15.394;2023-03-23T21:09:06;46.67;;;9.80;;
1747;SDS011;871;47.034;15.394;2023-03-23T21:11:33;48.60;;;10.00;;
1747;SDS011;871;47.034;15.394;2023-03-23T21:14:00;48.80;;;10.20;;
1747;SDS011;871;47.034;15.394;2023-03-23T21:16:27;49.73;;;11.00;;
1747;SDS011;871;47.034;15.394;2023-03-23T21:18:55;48.17;;;10.50;;
1747;SDS011;871;47.034;15.394;2023-03-23T21:21:22;48.43;;;11.20;;
1747;SDS011;871;47.034;15.394;2023-03-23T21:23:51;48.20;;;9.93;;
1747;SDS011;871;47.034;15.394;2023-03-23T21:26:19;49.20;;;11.20;;
1747;SDS011;871;47.034;15.394;2023-03-23T21:28:48;54.77;;;11.80;;
1747;SDS011;871;47.034;15.394;2023-03-23T21:31:15;51.83;;;11.67;;
1747;SDS011;871;47.034;15.394;2023-03-23T21:33:43;50.60;;;12.30;;
1747;SDS011;871;47.034;15.394;2023-03-23T21:36:10;55.20;;;13.50;;